Time;durP1;ratioP1;P1;durP2;ratioP2;P2;SDS_P1;SDS_P2;PMS_P1;PMS_P2;Temp;Humidity;BMP_temperature;BMP_pressure;BME280_temperature;BME280_humidity;BME280_pressure;Samples;Min_cycle;Max_cycle;Signal;HPM_P1;HPM_P2
2023/09/05 00:01:49;;;;;;;;;;;;;;;;;;5093425;28;20015;-71
2023/09/05 00:04:16;;;;;;;;;;;;;;;;;;5093413;28;19986;-68
2023/09/05 00:06:43;;;;;;;;;;;;;;;;;;5094921;28;19928;-69
2023/09/05 00:09:10;;;;;;;;;;;;;;;;;;5090485;28;19997;-69
2023/09/05 00:11:37;;;;;;;;;;;;;;;;;;5091925;28;19924;-69
2023/09/05 00:14:04;;;;;;;;;;;;;;;;;;5094883;28;20391;-69
2023/09/05 00:16:31;;;;;;;;;;;;;;;;;;5094639;28;19924;-69
2023/09/05 00:18:58;;;;;;;;;;;;;;;;;;5093502;28;19973;-69
2023/09/05 00:21:25;;;;;;;;;;;;;;;;;;5094932;28;19924;-68
2023/09/05 00:23:52;;;;;;;;;;;;;;;;;;5093908;28;19924;-68
2023/09/05 00:26:19;;;;;;;;;;;;;;;;;;5095298;28;20395;-68
2023/09/05 00:28:50;;;;;;;;;;;;;;;;;;5096080;28;19928;-69
2023/09/05 00:31:17;;;;;;;;;;;;;;;;;;5096131;28;20302;-68
2023/09/05 00:33:44;;;;;;;;;;;;;;;;;;5091389;28;19928;-69
2023/09/05 00:36:12;;;;;;;;;;;;;;;;;;5092934;28;20398;-69
2023/09/05 00:38:40;;;;;;;;;;;;;;;;;;5094297;28;20019;-68
2023/09/05 00:41:07;;;;;;;;;;;;;;;;;;5073924;28;20580;-69
2023/09/05 00:43:34;;;;;;;;;;;;;;;;;;5073900;28;19955;-68
2023/09/05 00:46:05;;;;;;;;;;;;;;;;;;5091341;28;20367;-68
2023/09/05 00:48:32;;;;;;;;;;;;;;;;;;5091544;28;19924;-69
2023/09/05 00:50:59;;;;;;;;;;;;;;;;;;5093133;28;19960;-69
2023/09/05 00:53:26;;;;;;;;;;;;;;;;;;5093385;28;19924;-69
2023/09/05 00:55:53;;;;;;;;;;;;;;;;;;5093591;28;19931;-69
2023/09/05 00:58:20;;;;;;;;;;;;;;;;;;5093858;28;20060;-69
2023/09/05 01:00:47;;;;;;;;;;;;;;;;;;5093552;28;19950;-68
2023/09/05 01:03:14;;;;;;;;;;;;;;;;;;5091584;28;19928;-69
2023/09/05 01:05:41;;;;;;;;;;;;;;;;;;5092402;28;20345;-69
2023/09/05 01:08:08;;;;;;;;;;;;;;;;;;5093440;28;19924;-71
2023/09/05 01:10:37;;;;;;;;;;;;;;;;;;5092760;28;20307;-69
2023/09/05 01:13:04;;;;;;;;;;;;;;;;;;5089908;28;19924;-69
2023/09/05 01:15:31;;;;;;;;;;;;;;;;;;5093517;28;19967;-69
2023/09/05 01:17:58;;;;;;;;;;;;;;;;;;5091086;28;19924;-69
2023/09/05 01:20:26;;;;;;;;;;;;;;;;;;5092797;28;19924;-69
2023/09/05 01:22:53;;;;;;;;;;;;;;;;;;5093527;28;19977;-69
2023/09/05 01:25:20;;;;;;;;;;;;;;;;;;5092357;28;19959;-69
2023/09/05 01:27:48;;;;;;;;;;;;;;;;;;5091527;28;19928;-69
2023/09/05 01:30:15;;;;;;;;;;;;;;;;;;5091352;28;20046;-69
2023/09/05 01:32:42;;;;;;;;;;;;;;;;;;5092842;28;20598;-68
2023/09/05 01:35:09;;;;;;;;;;;;;;;;;;5091952;28;19967;-69
2023/09/05 01:37:36;;;;;;;;;;;;;;;;;;5091762;28;20030;-69
2023/09/05 01:40:03;;;;;;;;;;;;;;;;;;5077278;28;19931;-68
2023/09/05 01:42:30;;;;;;;;;;;;;;;;;;5093469;28;19924;-69
2023/09/05 01:44:57;;;;;;;;;;;;;;;;;;5092129;28;20369;-69
2023/09/05 01:47:24;;;;;;;;;;;;;;;;;;5092678;28;19977;-68
2023/09/05 01:49:51;;;;;;;;;;;;;;;;;;5091029;28;19927;-69
2023/09/05 01:52:18;;;;;;;;;;;;;;;;;;5092092;28;19924;-69
2023/09/05 01:54:45;;;;;;;;;;;;;;;;;;5091882;28;19981;-69
2023/09/05 01:57:12;;;;;;;;;;;;;;;;;;5088212;28;19959;-69
2023/09/05 01:59:39;;;;;;;;;;;;;;;;;;5091571;28;19931;-69
2023/09/05 02:02:06;;;;;;;;;;;;;;;;;;5091120;28;19924;-68
2023/09/05 02:04:33;;;;;;;;;;;;;;;;;;5091384;28;20401;-69
2023/09/05 02:07:00;;;;;;;;;;;;;;;;;;5092048;28;19931;-68
2023/09/05 02:09:27;;;;;;;;;;;;;;;;;;5091116;28;20348;-69
2023/09/05 02:11:54;;;;;;;;;;;;;;;;;;5092713;28;19977;-69
2023/09/05 02:14:21;;;;;;;;;;;;;;;;;;5091030;28;20383;-69
2023/09/05 02:16:48;;;;;;;;;;;;;;;;;;5091699;28;19928;-68
2023/09/05 02:19:16;;;;;;;;;;;;;;;;;;5091395;28;19924;-69
2023/09/05 02:21:43;;;;;;;;;;;;;;;;;;5091734;28;20449;-68
2023/09/05 02:24:10;;;;;;;;;;;;;;;;;;5088361;28;19955;-69
2023/09/05 02:26:37;;;;;;;;;;;;;;;;;;5092167;28;19989;-69
2023/09/05 02:29:04;;;;;;;;;;;;;;;;;;5091456;28;19946;-69
2023/09/05 02:31:31;;;;;;;;;;;;;;;;;;5090910;28;19981;-69
2023/09/05 02:33:58;;;;;;;;;;;;;;;;;;5091927;28;19948;-69
2023/09/05 02:36:25;;;;;;;;;;;;;;;;;;5087971;28;19969;-69
2023/09/05 02:38:52;;;;;;;;;;;;;;;;;;5092234;28;19977;-69
2023/09/05 02:41:19;;;;;;;;;;;;;;;;;;5091422;28;19960;-69
2023/09/05 02:43:47;;;;;;;;;;;;;;;;;;5092360;28;19932;-69
2023/09/05 02:46:14;;;;;;;;;;;;;;;;;;5091947;28;20443;-69
2023/09/05 02:48:41;;;;;;;;;;;;;;;;;;5090542;28;19924;-69
2023/09/05 02:51:08;;;;;;;;;;;;;;;;;;5089624;28;19950;-69
2023/09/05 02:53:35;;;;;;;;;;;;;;;;;;5088452;28;19924;-69
2023/09/05 02:56:02;;;;;;;;;;;;;;;;;;5090629;28;19924;-69
2023/09/05 02:58:31;;;;;;;;;;;;;;;;;;5091973;28;19924;-69
2023/09/05 03:00:58;;;;;;;;;;;;;;;;;;5091913;28;19924;-69
2023/09/05 03:03:26;;;;;;;;;;;;;;;;;;5091021;28;19963;-69
2023/09/05 03:05:53;;;;;;;;;;;;;;;;;;5090981;28;19950;-69
2023/09/05 03:08:20;;;;;;;;;;;;;;;;;;5092360;28;20450;-68
2023/09/05 03:10:47;;;;;;;;;;;;;;;;;;5096534;28;19924;-69
2023/09/05 03:13:14;;;;;;;;;;;;;;;;;;5095180;28;20448;-69
2023/09/05 03:15:41;;;;;;;;;;;;;;;;;;5095714;28;19928;-69
2023/09/05 03:18:08;;;;;;;;;;;;;;;;;;5094385;28;19924;-68
2023/09/05 03:20:35;;;;;;;;;;;;;;;;;;5094727;28;19923;-69
2023/09/05 03:23:02;;;;;;;;;;;;;;;;;;5093967;28;19978;-69
2023/09/05 03:25:29;;;;;;;;;;;;;;;;;;5094274;28;19928;-69
2023/09/05 03:27:56;;;;;;;;;;;;;;;;;;5094892;28;19924;-69
2023/09/05 03:30:23;;;;;;;;;;;;;;;;;;5096481;28;20268;-69
2023/09/05 03:32:50;;;;;;;;;;;;;;;;;;5094378;28;19936;-69
2023/09/05 03:35:17;;;;;;;;;;;;;;;;;;5093563;28;20023;-68
2023/09/05 03:37:47;;;;;;;;;;;;;;;;;;5095586;28;19931;-69
2023/09/05 03:40:14;;;;;;;;;;;;;;;;;;5092979;28;20358;-69
2023/09/05 03:42:43;;;;;;;;;;;;;;;;;;5095024;28;20036;-69
2023/09/05 03:45:10;;;;;;;;;;;;;;;;;;5091913;28;19993;-69
2023/09/05 03:47:37;;;;;;;;;;;;;;;;;;5092389;28;20396;-69
2023/09/05 03:50:04;;;;;;;;;;;;;;;;;;5092654;28;20029;-69
2023/09/05 03:52:31;;;;;;;;;;;;;;;;;;5094686;28;20393;-69
2023/09/05 03:54:58;;;;;;;;;;;;;;;;;;5095682;28;19971;-69
2023/09/05 03:57:25;;;;;;;;;;;;;;;;;;5096381;28;19924;-68
2023/09/05 03:59:52;;;;;;;;;;;;;;;;;;5093586;28;19982;-69
2023/09/05 04:02:19;;;;;;;;;;;;;;;;;;5091277;28;19932;-68
2023/09/05 04:04:46;;;;;;;;;;;;;;;;;;5096583;28;19928;-69
2023/09/05 04:07:13;;;;;;;;;;;;;;;;;;5097859;28;19924;-68
2023/09/05 04:09:40;;;;;;;;;;;;;;;;;;5095469;28;19977;-69
2023/09/05 04:12:07;;;;;;;;;;;;;;;;;;5095163;28;19924;-69
2023/09/05 04:14:34;;;;;;;;;;;;;;;;;;5094741;28;20394;-69
2023/09/05 04:17:01;;;;;;;;;;;;;;;;;;5094298;28;20037;-69
2023/09/05 04:19:28;;;;;;;;;;;;;;;;;;5091399;28;20037;-69
2023/09/05 04:21:55;;;;;;;;;;;;;;;;;;5094344;28;19925;-67
2023/09/05 04:24:22;;;;;;;;;;;;;;;;;;5093248;28;19978;-68
2023/09/05 04:26:50;;;;;;;;;;;;;;;;;;5094386;28;19932;-68
2023/09/05 04:29:17;;;;;;;;;;;;;;;;;;5088185;28;19963;-68
2023/09/05 04:31:44;;;;;;;;;;;;;;;;;;5092746;28;20357;-67
2023/09/05 04:34:11;;;;;;;;;;;;;;;;;;5093078;28;19963;-67
2023/09/05 04:36:38;;;;;;;;;;;;;;;;;;5087208;28;19967;-70
2023/09/05 04:39:05;;;;;;;;;;;;;;;;;;5093009;28;19975;-67
2023/09/05 04:41:32;;;;;;;;;;;;;;;;;;5087154;28;19969;-67
2023/09/05 04:43:59;;;;;;;;;;;;;;;;;;5091320;28;19928;-67
2023/09/05 04:46:27;;;;;;;;;;;;;;;;;;5093157;28;19925;-66
2023/09/05 04:48:54;;;;;;;;;;;;;;;;;;5093431;28;19955;-67
2023/09/05 04:51:21;;;;;;;;;;;;;;;;;;5092343;28;19924;-68
2023/09/05 04:53:48;;;;;;;;;;;;;;;;;;5093660;28;19924;-67
2023/09/05 04:56:15;;;;;;;;;;;;;;;;;;5093403;28;19984;-67
2023/09/05 04:58:42;;;;;;;;;;;;;;;;;;5091868;28;19997;-67
2023/09/05 05:01:09;;;;;;;;;;;;;;;;;;5093403;28;20349;-68
2023/09/05 05:03:36;;;;;;;;;;;;;;;;;;5092577;28;19928;-67
2023/09/05 05:06:03;;;;;;;;;;;;;;;;;;5090771;28;19981;-67
2023/09/05 05:08:30;;;;;;;;;;;;;;;;;;5093625;28;19924;-67
2023/09/05 05:10:57;;;;;;;;;;;;;;;;;;5093945;28;19924;-67
2023/09/05 05:13:24;;;;;;;;;;;;;;;;;;5091407;28;20314;-67
2023/09/05 05:15:51;;;;;;;;;;;;;;;;;;5092529;28;19979;-67
2023/09/05 05:18:19;;;;;;;;;;;;;;;;;;5090179;28;20411;-67
2023/09/05 05:20:46;;;;;;;;;;;;;;;;;;5092591;28;19986;-67
2023/09/05 05:23:13;;;;;;;;;;;;;;;;;;5093060;28;20291;-67
2023/09/05 05:25:40;;;;;;;;;;;;;;;;;;5093055;28;19928;-67
2023/09/05 05:28:07;;;;;;;;;;;;;;;;;;5093277;28;19924;-66
2023/09/05 05:30:34;;;;;;;;;;;;;;;;;;5093051;28;19925;-67
2023/09/05 05:33:01;;;;;;;;;;;;;;;;;;5091665;28;19986;-67
2023/09/05 05:35:28;;;;;;;;;;;;;;;;;;5084693;28;20021;-67
2023/09/05 05:37:55;;;;;;;;;;;;;;;;;;5086374;28;20404;-67
2023/09/05 05:40:22;;;;;;;;;;;;;;;;;;5088560;28;19978;-66
2023/09/05 05:42:49;;;;;;;;;;;;;;;;;;5093245;28;20329;-67
2023/09/05 05:45:16;;;;;;;;;;;;;;;;;;5093042;28;19924;-67
2023/09/05 05:47:43;;;;;;;;;;;;;;;;;;5092548;28;20415;-67
2023/09/05 05:50:10;;;;;;;;;;;;;;;;;;5082748;28;19939;-67
2023/09/05 05:52:38;;;;;;;;;;;;;;;;;;5091653;28;20014;-68
2023/09/05 05:55:05;;;;;;;;;;;;;;;;;;5092757;28;19924;-66
2023/09/05 05:57:33;;;;;;;;;;;;;;;;;;5086816;28;19928;-67
2023/09/05 05:59:59;;;;;;;;;;;;;;;;;;5083994;28;19928;-67
2023/09/05 06:02:27;;;;;;;;;;;;;;;;;;5081143;28;20235;-66
2023/09/05 06:04:54;;;;;;;;;;;;;;;;;;5086292;28;19954;-67
2023/09/05 06:07:21;;;;;;;;;;;;;;;;;;5091442;28;19924;-67
2023/09/05 06:09:48;;;;;;;;;;;;;;;;;;5090992;28;20046;-67
2023/09/05 06:12:15;;;;;;;;;;;;;;;;;;5091156;28;19924;-67
2023/09/05 06:14:42;;;;;;;;;;;;;;;;;;5092022;28;19924;-67
2023/09/05 06:17:09;;;;;;;;;;;;;;;;;;5089264;28;19924;-67
2023/09/05 06:19:36;;;;;;;;;;;;;;;;;;5090245;28;19924;-67
2023/09/05 06:22:03;;;;;;;;;;;;;;;;;;5090547;28;19969;-71
2023/09/05 06:24:30;;;;;;;;;;;;;;;;;;5086879;28;20446;-68
2023/09/05 06:26:57;;;;;;;;;;;;;;;;;;5089278;28;20332;-69
2023/09/05 06:29:24;;;;;;;;;;;;;;;;;;5090610;28;19932;-67
2023/09/05 06:31:52;;;;;;;;;;;;;;;;;;5086616;28;19970;-66
2023/09/05 06:34:19;;;;;;;;;;;;;;;;;;5081488;28;20018;-67
2023/09/05 06:36:46;;;;;;;;;;;;;;;;;;5090784;28;20285;-67
2023/09/05 06:39:13;;;;;;;;;;;;;;;;;;5089557;28;19977;-67
2023/09/05 06:41:41;;;;;;;;;;;;;;;;;;5091216;28;19924;-67
2023/09/05 06:44:08;;;;;;;;;;;;;;;;;;5087410;28;20016;-67
2023/09/05 06:46:35;;;;;;;;;;;;;;;;;;5081362;28;19939;-67
2023/09/05 06:49:05;;;;;;;;;;;;;;;;;;5091226;28;19924;-67
2023/09/05 06:51:32;;;;;;;;;;;;;;;;;;5082661;28;20311;-67
2023/09/05 06:53:59;;;;;;;;;;;;;;;;;;5090067;28;19978;-67
2023/09/05 06:56:26;;;;;;;;;;;;;;;;;;5085237;28;20021;-67
2023/09/05 06:58:53;;;;;;;;;;;;;;;;;;5083695;28;19975;-67
2023/09/05 07:01:20;;;;;;;;;;;;;;;;;;5089323;28;20347;-68
2023/09/05 07:03:47;;;;;;;;;;;;;;;;;;5087512;28;19928;-68
2023/09/05 07:06:18;;;;;;;;;;;;;;;;;;5083883;28;20314;-68
2023/09/05 07:08:45;;;;;;;;;;;;;;;;;;5093063;28;20272;-68
2023/09/05 07:11:12;;;;;;;;;;;;;;;;;;5094938;28;19970;-68
2023/09/05 07:13:39;;;;;;;;;;;;;;;;;;5088594;28;19977;-67
2023/09/05 07:16:06;;;;;;;;;;;;;;;;;;5089172;28;19928;-69
2023/09/05 07:18:33;;;;;;;;;;;;;;;;;;5091078;28;20448;-67
2023/09/05 07:21:00;;;;;;;;;;;;;;;;;;5093063;28;19935;-68
2023/09/05 07:23:27;;;;;;;;;;;;;;;;;;5094422;28;19924;-68
2023/09/05 07:25:55;;;;;;;;;;;;;;;;;;5093607;28;20387;-68
2023/09/05 07:28:22;;;;;;;;;;;;;;;;;;5095430;28;19924;-68
2023/09/05 07:30:49;;;;;;;;;;;;;;;;;;5090014;28;20002;-68
2023/09/05 07:33:16;;;;;;;;;;;;;;;;;;5090463;28;19970;-68
2023/09/05 07:35:44;;;;;;;;;;;;;;;;;;5087607;28;19946;-68
2023/09/05 07:38:12;;;;;;;;;;;;;;;;;;5085254;28;19931;-68
2023/09/05 07:40:39;;;;;;;;;;;;;;;;;;5085970;28;19932;-68
2023/09/05 07:43:06;;;;;;;;;;;;;;;;;;5091864;28;19970;-68
2023/09/05 07:45:33;;;;;;;;;;;;;;;;;;5094305;28;19928;-67
2023/09/05 07:48:00;;;;;;;;;;;;;;;;;;5087817;28;19924;-68
2023/09/05 07:50:27;;;;;;;;;;;;;;;;;;5090966;28;20023;-68
2023/09/05 07:52:54;;;;;;;;;;;;;;;;;;5093157;28;19931;-68
2023/09/05 07:55:21;;;;;;;;;;;;;;;;;;5088521;28;20001;-68
2023/09/05 07:57:48;;;;;;;;;;;;;;;;;;5082192;28;20351;-68
2023/09/05 08:00:17;;;;;;;;;;;;;;;;;;5091508;28;20306;-68
2023/09/05 08:02:44;;;;;;;;;;;;;;;;;;5088416;28;19932;-68
2023/09/05 08:05:11;;;;;;;;;;;;;;;;;;5084913;28;21675;-68
2023/09/05 08:07:38;;;;;;;;;;;;;;;;;;5082906;28;19986;-68
2023/09/05 08:10:05;;;;;;;;;;;;;;;;;;5084583;28;19930;-68
2023/09/05 08:12:32;;;;;;;;;;;;;;;;;;5091543;28;19924;-68
2023/09/05 08:14:59;;;;;;;;;;;;;;;;;;5084698;28;20039;-68
2023/09/05 08:17:26;;;;;;;;;;;;;;;;;;5082165;28;19978;-68
2023/09/05 08:19:53;;;;;;;;;;;;;;;;;;5088330;28;20178;-64
2023/09/05 08:22:20;;;;;;;;;;;;;;;;;;5086565;28;20525;-69
2023/09/05 08:24:47;;;;;;;;;;;;;;;;;;5089209;28;19924;-70
2023/09/05 08:27:14;;;;;;;;;;;;;;;;;;5086628;28;19924;-69
2023/09/05 08:29:42;;;;;;;;;;;;;;;;;;5089340;28;19947;-70
2023/09/05 08:32:09;;;;;;;;;;;;;;;;;;5087739;28;19933;-70
2023/09/05 08:34:36;;;;;;;;;;;;;;;;;;5080181;28;19924;-70
2023/09/05 08:37:04;;;;;;;;;;;;;;;;;;5091673;28;20375;-70
2023/09/05 08:39:31;;;;;;;;;;;;;;;;;;5088616;28;19938;-69
2023/09/05 08:41:58;;;;;;;;;;;;;;;;;;5085784;28;19970;-70
2023/09/05 08:44:25;;;;;;;;;;;;;;;;;;5090768;28;19928;-69
2023/09/05 08:46:52;;;;;;;;;;;;;;;;;;5087002;28;19992;-70
2023/09/05 08:49:19;;;;;;;;;;;;;;;;;;5092787;28;19924;-70
2023/09/05 08:51:46;;;;;;;;;;;;;;;;;;5093436;28;20340;-70
2023/09/05 08:54:13;;;;;;;;;;;;;;;;;;5083610;28;19924;-70
2023/09/05 08:56:40;;;;;;;;;;;;;;;;;;5085462;28;19978;-69
2023/09/05 08:59:07;;;;;;;;;;;;;;;;;;5087806;28;20743;-70
2023/09/05 09:01:34;;;;;;;;;;;;;;;;;;5086346;28;20045;-69
2023/09/05 09:04:01;;;;;;;;;;;;;;;;;;5091445;28;20357;-70
2023/09/05 09:06:29;;;;;;;;;;;;;;;;;;5085016;28;20290;-70
2023/09/05 09:08:56;;;;;;;;;;;;;;;;;;5087941;28;19938;-70
2023/09/05 09:11:23;;;;;;;;;;;;;;;;;;5084979;28;20367;-71
2023/09/05 09:13:51;;;;;;;;;;;;;;;;;;5091053;28;19994;-70
2023/09/05 09:16:18;;;;;;;;;;;;;;;;;;5080922;28;19978;-70
2023/09/05 09:18:45;;;;;;;;;;;;;;;;;;5085821;28;20307;-70
2023/09/05 09:21:12;;;;;;;;;;;;;;;;;;5087216;28;19924;-70
2023/09/05 09:23:40;;;;;;;;;;;;;;;;;;5089728;28;19931;-72
2023/09/05 09:26:07;;;;;;;;;;;;;;;;;;5091050;28;19924;-70
2023/09/05 09:28:34;;;;;;;;;;;;;;;;;;5092326;28;20337;-71
2023/09/05 09:31:02;;;;;;;;;;;;;;;;;;5090987;28;19924;-72
2023/09/05 09:33:31;;;;;;;;;;;;;;;;;;5090452;28;19932;-71
2023/09/05 09:35:58;;;;;;;;;;;;;;;;;;5090444;28;19931;-71
2023/09/05 09:38:25;;;;;;;;;;;;;;;;;;5090477;28;19924;-71
2023/09/05 09:40:52;;;;;;;;;;;;;;;;;;5084079;28;20014;-71
2023/09/05 09:43:19;;;;;;;;;;;;;;;;;;5088986;28;19924;-71
2023/09/05 09:45:46;;;;;;;;;;;;;;;;;;5088601;28;19928;-71
2023/09/05 09:48:13;;;;;;;;;;;;;;;;;;5108677;28;19923;-71
2023/09/05 09:50:40;;;;;;;;;;;;;;;;;;5089210;28;19986;-71
2023/09/05 09:53:08;;;;;;;;;;;;;;;;;;5091252;28;19978;-71
2023/09/05 09:55:35;;;;;;;;;;;;;;;;;;5090360;28;19924;-71
2023/09/05 09:58:02;;;;;;;;;;;;;;;;;;5090747;28;19932;-72
2023/09/05 10:00:30;;;;;;;;;;;;;;;;;;5086095;28;19971;-71
2023/09/05 10:02:58;;;;;;;;;;;;;;;;;;5082836;28;20413;-71
2023/09/05 10:05:25;;;;;;;;;;;;;;;;;;5075117;28;20291;-71
2023/09/05 10:07:52;;;;;;;;;;;;;;;;;;5083688;28;20014;-71
2023/09/05 10:10:19;;;;;;;;;;;;;;;;;;5080452;28;20019;-71
2023/09/05 10:12:46;;;;;;;;;;;;;;;;;;5083748;28;19993;-71
2023/09/05 10:15:14;;;;;;;;;;;;;;;;;;5082959;28;19936;-70
2023/09/05 10:17:41;;;;;;;;;;;;;;;;;;5087433;28;19932;-70
2023/09/05 10:20:08;;;;;;;;;;;;;;;;;;5084091;28;19939;-70
2023/09/05 10:22:36;;;;;;;;;;;;;;;;;;5083631;28;20010;-70
2023/09/05 10:25:03;;;;;;;;;;;;;;;;;;5090104;28;19924;-70
2023/09/05 10:27:30;;;;;;;;;;;;;;;;;;5090587;28;19970;-70
2023/09/05 10:29:57;;;;;;;;;;;;;;;;;;5084304;28;19932;-70
2023/09/05 10:32:24;;;;;;;;;;;;;;;;;;5087506;28;19931;-70
2023/09/05 10:34:52;;;;;;;;;;;;;;;;;;5090858;28;19977;-71
2023/09/05 10:37:19;;;;;;;;;;;;;;;;;;5090678;28;19924;-72
2023/09/05 10:39:46;;;;;;;;;;;;;;;;;;5086216;28;19986;-71
2023/09/05 10:42:13;;;;;;;;;;;;;;;;;;5081628;28;19968;-71
2023/09/05 10:44:41;;;;;;;;;;;;;;;;;;5086800;28;19959;-69
2023/09/05 10:47:09;;;;;;;;;;;;;;;;;;5090343;28;19928;-69
2023/09/05 10:49:36;;;;;;;;;;;;;;;;;;5080468;28;19924;-69
2023/09/05 10:52:03;;;;;;;;;;;;;;;;;;5085614;28;19978;-70
2023/09/05 10:54:31;;;;;;;;;;;;;;;;;;5082353;28;20402;-68
2023/09/05 10:56:58;;;;;;;;;;;;;;;;;;5085720;28;19939;-68
2023/09/05 10:59:25;;;;;;;;;;;;;;;;;;5077890;28;20338;-69
2023/09/05 11:01:56;;;;;;;;;;;;;;;;;;5083954;28;19924;-68
2023/09/05 11:04:26;;;;;;;;;;;;;;;;;;5079230;28;19967;-68
2023/09/05 11:06:54;;;;;;;;;;;;;;;;;;5085174;28;19924;-68
2023/09/05 11:09:21;;;;;;;;;;;;;;;;;;5081300;28;19924;-68
2023/09/05 11:11:48;;;;;;;;;;;;;;;;;;5088047;28;19928;-69
2023/09/05 11:14:15;;;;;;;;;;;;;;;;;;5085574;28;19936;-69
2023/09/05 11:16:46;;;;;;;;;;;;;;;;;;5078775;28;19924;-69
2023/09/05 11:19:13;;;;;;;;;;;;;;;;;;5081615;28;19928;-70
2023/09/05 11:21:41;;;;;;;;;;;;;;;;;;5077932;28;19924;-69
2023/09/05 11:24:08;;;;;;;;;;;;;;;;;;5085940;28;19924;-69
2023/09/05 11:26:35;;;;;;;;;;;;;;;;;;5079255;28;19929;-70
2023/09/05 11:29:02;;;;;;;;;;;;;;;;;;5089102;28;20291;-70
2023/09/05 11:31:30;;;;;;;;;;;;;;;;;;5089223;28;20378;-70
2023/09/05 11:33:57;;;;;;;;;;;;;;;;;;5086879;28;19938;-70
2023/09/05 11:36:24;;;;;;;;;;;;;;;;;;5083265;28;19928;-69
2023/09/05 11:38:52;;;;;;;;;;;;;;;;;;5082670;28;19947;-70
2023/09/05 11:41:20;;;;;;;;;;;;;;;;;;5089039;28;20011;-70
2023/09/05 11:43:48;;;;;;;;;;;;;;;;;;5089779;22;20003;-70
2023/09/05 11:46:15;;;;;;;;;;;;;;;;;;5063620;28;19972;-69
2023/09/05 11:48:42;;;;;;;;;;;;;;;;;;5066170;28;19925;-70
2023/09/05 11:51:09;;;;;;;;;;;;;;;;;;5068432;28;19933;-69
2023/09/05 11:53:36;;;;;;;;;;;;;;;;;;5071588;28;19932;-70
2023/09/05 11:56:03;;;;;;;;;;;;;;;;;;5068820;28;20023;-69
2023/09/05 11:58:30;;;;;;;;;;;;;;;;;;5069175;28;20008;-70
2023/09/05 12:00:58;;;;;;;;;;;;;;;;;;5070743;28;19960;-69
2023/09/05 12:03:25;;;;;;;;;;;;;;;;;;5069853;28;19940;-69
2023/09/05 12:05:53;;;;;;;;;;;;;;;;;;5069233;28;20375;-70
2023/09/05 12:08:20;;;;;;;;;;;;;;;;;;5069229;28;20019;-70
2023/09/05 12:10:51;;;;;;;;;;;;;;;;;;5069285;28;19924;-70
2023/09/05 12:13:18;;;;;;;;;;;;;;;;;;5067381;28;19924;-70
2023/09/05 12:15:45;;;;;;;;;;;;;;;;;;5074840;28;20376;-70
2023/09/05 12:18:12;;;;;;;;;;;;;;;;;;5077331;28;20019;-69
2023/09/05 12:20:39;;;;;;;;;;;;;;;;;;5070924;28;19924;-70
2023/09/05 12:23:07;;;;;;;;;;;;;;;;;;5067263;28;19928;-71
2023/09/05 12:25:36;;;;;;;;;;;;;;;;;;5068692;28;20425;-71
2023/09/05 12:28:05;;;;;;;;;;;;;;;;;;5074034;28;20371;-71
2023/09/05 12:30:32;;;;;;;;;;;;;;;;;;5083007;28;19931;-71
2023/09/05 12:32:59;;;;;;;;;;;;;;;;;;5074567;28;20441;-71
2023/09/05 12:35:28;;;;;;;;;;;;;;;;;;5072387;28;19924;-71
2023/09/05 12:37:55;;;;;;;;;;;;;;;;;;5071398;28;19969;-71
2023/09/05 12:40:22;;;;;;;;;;;;;;;;;;5075444;28;19929;-71
2023/09/05 12:42:49;;;;;;;;;;;;;;;;;;5067693;28;20023;-71
2023/09/05 12:45:16;;;;;;;;;;;;;;;;;;5070911;28;19925;-71
2023/09/05 12:47:43;;;;;;;;;;;;;;;;;;5065293;28;19932;-70
2023/09/05 12:50:12;;;;;;;;;;;;;;;;;;5067880;28;19924;-70
2023/09/05 12:52:39;;;;;;;;;;;;;;;;;;5069415;28;19968;-70
2023/09/05 12:55:06;;;;;;;;;;;;;;;;;;5074373;28;19936;-71
2023/09/05 12:57:33;;;;;;;;;;;;;;;;;;5073108;28;20390;-71
2023/09/05 13:00:00;;;;;;;;;;;;;;;;;;5069751;28;19924;-70
2023/09/05 13:02:27;;;;;;;;;;;;;;;;;;5071497;28;20406;-70
2023/09/05 13:04:54;;;;;;;;;;;;;;;;;;5071434;28;20002;-70
2023/09/05 13:07:20;;;;;;;;;;;;;;;;;;5071853;28;19925;-69
2023/09/05 13:09:47;;;;;;;;;;;;;;;;;;5070983;28;19925;-70
2023/09/05 13:12:14;;;;;;;;;;;;;;;;;;5076608;28;20030;-70
2023/09/05 13:14:42;;;;;;;;;;;;;;;;;;5073719;28;20468;-70
2023/09/05 13:17:09;;;;;;;;;;;;;;;;;;5068585;28;19928;-70
2023/09/05 13:19:36;;;;;;;;;;;;;;;;;;5071800;28;20349;-70
2023/09/05 13:22:03;;;;;;;;;;;;;;;;;;5059853;28;20028;-70
2023/09/05 13:24:30;;;;;;;;;;;;;;;;;;5072060;28;20341;-71
2023/09/05 13:26:59;;;;;;;;;;;;;;;;;;5072803;28;19925;-70
2023/09/05 13:29:26;;;;;;;;;;;;;;;;;;5072510;28;19939;-70
2023/09/05 13:31:53;;;;;;;;;;;;;;;;;;5072620;28;19928;-70
2023/09/05 13:34:20;;;;;;;;;;;;;;;;;;5072897;28;20167;-70
2023/09/05 13:36:47;;;;;;;;;;;;;;;;;;5068982;28;19924;-70
2023/09/05 13:39:14;;;;;;;;;;;;;;;;;;5071080;28;20295;-70
2023/09/05 13:41:41;;;;;;;;;;;;;;;;;;5072334;28;19925;-70
2023/09/05 13:44:08;;;;;;;;;;;;;;;;;;5068626;28;19925;-71
2023/09/05 13:46:35;;;;;;;;;;;;;;;;;;5064516;28;19974;-69
2023/09/05 13:49:03;;;;;;;;;;;;;;;;;;5072506;28;19956;-69
2023/09/05 13:51:32;;;;;;;;;;;;;;;;;;5066697;28;19932;-69
2023/09/05 13:53:59;;;;;;;;;;;;;;;;;;5064300;28;20338;-71
2023/09/05 13:56:26;;;;;;;;;;;;;;;;;;5069072;28;19924;-69
2023/09/05 13:58:53;;;;;;;;;;;;;;;;;;5071764;28;19931;-68
2023/09/05 14:01:20;;;;;;;;;;;;;;;;;;5071498;28;20403;-69
2023/09/05 14:03:47;;;;;;;;;;;;;;;;;;5068116;28;19925;-68
2023/09/05 14:06:14;;;;;;;;;;;;;;;;;;5070604;28;19925;-68
2023/09/05 14:08:42;;;;;;;;;;;;;;;;;;5070997;28;19971;-68
2023/09/05 14:11:09;;;;;;;;;;;;;;;;;;5065051;28;20267;-68
2023/09/05 14:13:36;;;;;;;;;;;;;;;;;;5071644;28;19928;-68
2023/09/05 14:16:03;;;;;;;;;;;;;;;;;;5069429;28;19925;-68
2023/09/05 14:18:30;;;;;;;;;;;;;;;;;;5081287;28;20014;-68
2023/09/05 14:20:57;;;;;;;;;;;;;;;;;;5074824;28;20281;-68
2023/09/05 14:23:24;;;;;;;;;;;;;;;;;;5071475;28;19967;-68
2023/09/05 14:25:51;;;;;;;;;;;;;;;;;;5070664;28;19925;-70
2023/09/05 14:28:20;;;;;;;;;;;;;;;;;;5061282;28;20346;-68
2023/09/05 14:30:47;;;;;;;;;;;;;;;;;;5073384;28;20469;-69
2023/09/05 14:33:14;;;;;;;;;;;;;;;;;;5062534;28;19943;-68
2023/09/05 14:35:42;;;;;;;;;;;;;;;;;;5061163;28;19933;-70
2023/09/05 14:38:09;;;;;;;;;;;;;;;;;;5069081;28;20294;-69
2023/09/05 14:40:36;;;;;;;;;;;;;;;;;;5069940;28;19982;-69
2023/09/05 14:43:03;;;;;;;;;;;;;;;;;;5072712;28;19928;-69
2023/09/05 14:45:30;;;;;;;;;;;;;;;;;;5069624;28;19925;-69
2023/09/05 14:47:58;;;;;;;;;;;;;;;;;;5068308;28;19970;-70
2023/09/05 14:50:25;;;;;;;;;;;;;;;;;;5077515;28;20372;-69
2023/09/05 14:52:55;;;;;;;;;;;;;;;;;;5070601;28;19924;-70
2023/09/05 14:55:22;;;;;;;;;;;;;;;;;;5070689;28;20376;-70
2023/09/05 14:57:49;;;;;;;;;;;;;;;;;;5071277;28;19924;-70
2023/09/05 15:00:17;;;;;;;;;;;;;;;;;;5071491;28;19985;-69
2023/09/05 15:02:44;;;;;;;;;;;;;;;;;;5071754;28;19974;-70
2023/09/05 15:05:11;;;;;;;;;;;;;;;;;;5070223;28;20376;-71
2023/09/05 15:07:38;;;;;;;;;;;;;;;;;;5076920;28;19977;-70
2023/09/05 15:10:05;;;;;;;;;;;;;;;;;;5062833;28;20449;-70
2023/09/05 15:12:33;;;;;;;;;;;;;;;;;;5073706;28;19964;-71
2023/09/05 15:15:00;;;;;;;;;;;;;;;;;;5074631;28;19924;-70
2023/09/05 15:17:27;;;;;;;;;;;;;;;;;;5075807;28;19924;-71
2023/09/05 15:19:54;;;;;;;;;;;;;;;;;;5075400;28;19963;-70
2023/09/05 15:22:21;;;;;;;;;;;;;;;;;;5075159;28;19924;-70
2023/09/05 15:24:48;;;;;;;;;;;;;;;;;;5075067;28;19981;-71
2023/09/05 15:27:15;;;;;;;;;;;;;;;;;;5075163;28;19971;-70
2023/09/05 15:29:42;;;;;;;;;;;;;;;;;;5074863;28;19968;-70
2023/09/05 15:32:09;;;;;;;;;;;;;;;;;;5075348;28;20305;-70
2023/09/05 15:34:36;;;;;;;;;;;;;;;;;;5075619;28;19928;-70
2023/09/05 15:37:03;;;;;;;;;;;;;;;;;;5075252;28;20338;-70
2023/09/05 15:39:30;;;;;;;;;;;;;;;;;;5075389;28;19970;-71
2023/09/05 15:41:57;;;;;;;;;;;;;;;;;;5075022;28;19924;-70
2023/09/05 15:44:26;;;;;;;;;;;;;;;;;;5075199;28;20363;-68
2023/09/05 15:46:53;;;;;;;;;;;;;;;;;;5072435;28;19930;-68
2023/09/05 15:49:20;;;;;;;;;;;;;;;;;;5073530;28;19931;-68
2023/09/05 15:51:47;;;;;;;;;;;;;;;;;;5074918;28;19947;-70
2023/09/05 15:54:15;;;;;;;;;;;;;;;;;;5074699;28;20395;-68
2023/09/05 15:56:42;;;;;;;;;;;;;;;;;;5074924;28;19931;-68
2023/09/05 15:59:09;;;;;;;;;;;;;;;;;;5074488;28;19925;-68
2023/09/05 16:01:36;;;;;;;;;;;;;;;;;;5074145;28;19982;-68
2023/09/05 16:04:03;;;;;;;;;;;;;;;;;;5075417;28;19940;-68
2023/09/05 16:06:30;;;;;;;;;;;;;;;;;;5058491;28;19924;-68
2023/09/05 16:08:57;;;;;;;;;;;;;;;;;;5063843;28;19971;-69
2023/09/05 16:11:24;;;;;;;;;;;;;;;;;;5073597;28;19924;-69
2023/09/05 16:13:52;;;;;;;;;;;;;;;;;;5074313;28;19928;-68
2023/09/05 16:16:19;;;;;;;;;;;;;;;;;;5073884;28;20023;-69
2023/09/05 16:18:46;;;;;;;;;;;;;;;;;;5073879;28;19932;-69
2023/09/05 16:21:13;;;;;;;;;;;;;;;;;;5073893;28;19971;-68
2023/09/05 16:23:40;;;;;;;;;;;;;;;;;;5063811;28;19925;-69
2023/09/05 16:26:07;;;;;;;;;;;;;;;;;;5053775;28;19924;-69
2023/09/05 16:28:34;;;;;;;;;;;;;;;;;;5054499;28;20023;-68
2023/09/05 16:31:01;;;;;;;;;;;;;;;;;;5064646;28;20016;-68
2023/09/05 16:33:28;;;;;;;;;;;;;;;;;;5070106;28;19947;-69
2023/09/05 16:35:55;;;;;;;;;;;;;;;;;;5074541;28;20023;-68
2023/09/05 16:38:22;;;;;;;;;;;;;;;;;;5074121;28;20376;-69
2023/09/05 16:40:49;;;;;;;;;;;;;;;;;;5081388;28;20321;-68
2023/09/05 16:43:16;;;;;;;;;;;;;;;;;;5074284;28;19974;-69
2023/09/05 16:45:43;;;;;;;;;;;;;;;;;;5074080;28;20353;-68